This is the latest recevied weather packets stored in our database for station/object DO1YM-13. If no packets are shown the sender has not sent any weather packets the latest 10 day(s).
| Time | Temp. | Humidity | Pressure | Rain* | Wind** | Luminosity | Snow |
|---|---|---|---|---|---|---|---|
| 1787743547 | 23.33° C | 41% | 1016.6 hPa | 0 mm | - | 652 W/m² | - |
| 1787743248 | 23.33° C | 43% | 1016.9 hPa | 0 mm | - | 614 W/m² | - |
| 1787742948 | 22.78° C | 43% | 1016.9 hPa | 0 mm | - | 232 W/m² | - |
| 1787742647 | 22.78° C | 43% | 1016.6 hPa | 0 mm | - | 340 W/m² | - |
| 1787742349 | 23.89° C | 39% | 1016.6 hPa | 0 mm | - | 292 W/m² | - |
| 1787742048 | 23.89° C | 41% | 1016.6 hPa | 0 mm | - | 684 W/m² | - |
| 1787741748 | 25° C | 40% | 1016.6 hPa | 0 mm | - | 750 W/m² | - |
| 1787741448 | 24.44° C | 41% | 1016.6 hPa | 0 mm | - | 724 W/m² | - |
| 1787741148 | 23.89° C | 44% | 1016.6 hPa | 0 mm | - | 707 W/m² | - |
| 1787740848 | 24.44° C | 42% | 1016.6 hPa | 0 mm | - | 704 W/m² | - |
| 1787740548 | 24.44° C | 42% | 1016.6 hPa | 0 mm | - | 700 W/m² | - |
| 1787740248 | 24.44° C | 42% | 1016.6 hPa | 0 mm | - | 700 W/m² | - |
| 1787739947 | 24.44° C | 43% | 1016.6 hPa | 0 mm | - | 698 W/m² | - |
| 1787739647 | 24.44° C | 43% | 1016.6 hPa | 0 mm | - | 710 W/m² | - |
| 1787739347 | 24.44° C | 45% | 1016.6 hPa | 0 mm | - | 710 W/m² | - |
| 1787739049 | 23.89° C | 44% | 1016.6 hPa | 0 mm | - | 706 W/m² | - |
| 1787738747 | 23.33° C | 47% | 1016.6 hPa | 0 mm | - | 709 W/m² | - |
| 1787738448 | 23.33° C | 48% | 1016.6 hPa | 0 mm | - | 709 W/m² | - |
| 1787738149 | 23.89° C | 44% | 1016.6 hPa | 0 mm | - | 710 W/m² | - |
| 1787737848 | 23.33° C | 49% | 1016.6 hPa | 0 mm | - | 693 W/m² | - |
| 1787737549 | 22.22° C | 50% | 1016.6 hPa | 0 mm | - | 701 W/m² | - |
| 1787737258 | 22.22° C | 50% | 1016.9 hPa | 0 mm | - | 688 W/m² | - |
| 1787736948 | 22.22° C | 49% | 1016.6 hPa | 0 mm | - | 694 W/m² | - |
| 1787736648 | 22.22° C | 51% | 1016.6 hPa | 0 mm | - | 614 W/m² | - |
| 1787736059 | 21.67° C | 51% | 1016.6 hPa | 0 mm | - | 799 W/m² | - |
* Rain since midnight (hover to see other rain measurements)
** Current wind speed in m/s (hover to see current wind gust speed)